sensor_id;sensor_type;location;lat;lon;timestamp;pressure;altitude;pressure_sealevel;temperature;humidity
52469;BME280;38381;53.688;10.776;2023-03-21T00:04:40;101255.75;;;7.29;93.88
52469;BME280;38381;53.688;10.776;2023-03-21T00:09:40;101247.88;;;7.24;93.85
52469;BME280;38381;53.688;10.776;2023-03-21T00:14:40;101239.63;;;7.36;93.56
52469;BME280;38381;53.688;10.776;2023-03-21T00:19:41;101242.19;;;7.36;93.83
52469;BME280;38381;53.688;10.776;2023-03-21T00:24:44;101249.44;;;7.19;94.80
52469;BME280;38381;53.688;10.776;2023-03-21T00:29:45;101235.44;;;7.41;92.84
52469;BME280;38381;53.688;10.776;2023-03-21T00:34:46;101231.78;;;7.33;94.01
52469;BME280;38381;53.688;10.776;2023-03-21T00:39:47;101225.69;;;7.31;93.97
52469;BME280;38381;53.688;10.776;2023-03-21T00:44:48;101221.72;;;7.42;93.38
52469;BME280;38381;53.688;10.776;2023-03-21T00:49:48;101215.28;;;7.60;92.32
52469;BME280;38381;53.688;10.776;2023-03-21T00:54:49;101208.81;;;7.42;93.13
52469;BME280;38381;53.688;10.776;2023-03-21T00:59:49;101210.59;;;7.45;92.73
52469;BME280;38381;53.688;10.776;2023-03-21T01:04:50;101211.66;;;7.53;92.80
52469;BME280;38381;53.688;10.776;2023-03-21T01:09:50;101206.31;;;7.14;94.40
52469;BME280;38381;53.688;10.776;2023-03-21T01:14:50;101209.41;;;7.32;94.36
52469;BME280;38381;53.688;10.776;2023-03-21T01:19:51;101208.97;;;7.17;94.74
52469;BME280;38381;53.688;10.776;2023-03-21T01:24:51;101208.44;;;7.29;94.56
52469;BME280;38381;53.688;10.776;2023-03-21T01:29:52;101200.41;;;7.18;94.44
52469;BME280;38381;53.688;10.776;2023-03-21T01:34:52;101197.84;;;7.19;94.70
52469;BME280;38381;53.688;10.776;2023-03-21T01:39:52;101200.28;;;7.13;95.77
52469;BME280;38381;53.688;10.776;2023-03-21T01:49:58;101195.25;;;7.18;95.48
52469;BME280;38381;53.688;10.776;2023-03-21T01:55:03;101200.28;;;7.13;95.65
52469;BME280;38381;53.688;10.776;2023-03-21T02:00:06;101194.56;;;7.25;95.59
52469;BME280;38381;53.688;10.776;2023-03-21T02:05:11;101188.34;;;7.17;95.67
52469;BME280;38381;53.688;10.776;2023-03-21T02:10:13;101183.81;;;7.08;95.96
52469;BME280;38381;53.688;10.776;2023-03-21T02:15:15;101180.44;;;7.11;96.66
52469;BME280;38381;53.688;10.776;2023-03-21T02:31:35;101173.38;;;7.03;96.75
52469;BME280;38381;53.688;10.776;2023-03-21T02:42:11;101157.50;;;7.21;96.82
52469;BME280;38381;53.688;10.776;2023-03-21T02:47:23;101166.38;;;6.99;98.05
52469;BME280;38381;53.688;10.776;2023-03-21T02:52:28;101166.22;;;6.93;98.42
52469;BME280;38381;53.688;10.776;2023-03-21T02:57:31;101160.16;;;6.91;98.94
52469;BME280;38381;53.688;10.776;2023-03-21T03:02:32;101161.88;;;6.92;99.72
52469;BME280;38381;53.688;10.776;2023-03-21T03:07:36;101157.97;;;7.07;99.10
52469;BME280;38381;53.688;10.776;2023-03-21T03:12:56;101157.28;;;7.12;98.04
52469;BME280;38381;53.688;10.776;2023-03-21T03:18:24;101156.19;;;7.04;98.09
52469;BME280;38381;53.688;10.776;2023-03-21T03:23:44;101159.56;;;7.01;99.18
52469;BME280;38381;53.688;10.776;2023-03-21T03:28:50;101149.84;;;6.91;99.97
52469;BME280;38381;53.688;10.776;2023-03-21T03:33:55;101149.66;;;6.85;100.00
52469;BME280;38381;53.688;10.776;2023-03-21T03:38:59;101145.41;;;6.87;100.00
52469;BME280;38381;53.688;10.776;2023-03-21T03:44:03;101141.31;;;6.94;100.00
52469;BME280;38381;53.688;10.776;2023-03-21T03:49:08;101143.19;;;7.01;100.00
52469;BME280;38381;53.688;10.776;2023-03-21T03:54:13;101142.22;;;6.96;100.00
52469;BME280;38381;53.688;10.776;2023-03-21T03:59:17;101138.56;;;6.88;100.00
52469;BME280;38381;53.688;10.776;2023-03-21T04:04:24;101129.94;;;6.87;100.00
52469;BME280;38381;53.688;10.776;2023-03-21T04:09:28;101132.69;;;6.93;100.00
52469;BME280;38381;53.688;10.776;2023-03-21T04:14:29;101133.47;;;6.91;100.00
52469;BME280;38381;53.688;10.776;2023-03-21T04:19:29;101136.94;;;6.91;100.00
52469;BME280;38381;53.688;10.776;2023-03-21T04:24:30;101139.53;;;6.91;100.00
52469;BME280;38381;53.688;10.776;2023-03-21T04:29:33;101133.41;;;6.88;100.00
52469;BME280;38381;53.688;10.776;2023-03-21T04:34:33;101133.41;;;6.88;100.00
52469;BME280;38381;53.688;10.776;2023-03-21T04:39:39;101135.22;;;6.92;100.00
52469;BME280;38381;53.688;10.776;2023-03-21T04:44:40;101130.03;;;6.90;100.00
52469;BME280;38381;53.688;10.776;2023-03-21T04:49:41;101129.97;;;6.89;100.00
52469;BME280;38381;53.688;10.776;2023-03-21T04:54:42;101127.28;;;6.84;100.00
52469;BME280;38381;53.688;10.776;2023-03-21T04:59:42;101120.84;;;7.00;100.00
52469;BME280;38381;53.688;10.776;2023-03-21T05:04:43;101124.34;;;7.02;100.00
52469;BME280;38381;53.688;10.776;2023-03-21T05:09:43;101129.06;;;6.87;100.00
52469;BME280;38381;53.688;10.776;2023-03-21T05:14:44;101124.75;;;6.85;100.00
52469;BME280;38381;53.688;10.776;2023-03-21T05:19:45;101124.06;;;6.93;100.00
52469;BME280;38381;53.688;10.776;2023-03-21T05:24:46;101121.38;;;6.88;100.00
52469;BME280;38381;53.688;10.776;2023-03-21T05:29:50;101130.28;;;6.99;100.00
52469;BME280;38381;53.688;10.776;2023-03-21T05:34:50;101118.78;;;6.88;100.00
52469;BME280;38381;53.688;10.776;2023-03-21T05:39:50;101126.56;;;6.90;100.00
52469;BME280;38381;53.688;10.776;2023-03-21T05:44:51;101122.34;;;6.92;100.00
52469;BME280;38381;53.688;10.776;2023-03-21T05:49:52;101117.13;;;6.90;100.00
52469;BME280;38381;53.688;10.776;2023-03-21T05:54:52;101109.50;;;6.95;100.00
52469;BME280;38381;53.688;10.776;2023-03-21T05:59:53;101113.97;;;7.00;100.00
52469;BME280;38381;53.688;10.776;2023-03-21T06:04:53;101112.22;;;6.99;100.00
52469;BME280;38381;53.688;10.776;2023-03-21T06:09:53;101109.69;;;7.01;100.00
52469;BME280;38381;53.688;10.776;2023-03-21T06:14:54;101111.66;;;7.10;100.00
52469;BME280;38381;53.688;10.776;2023-03-21T06:19:54;101110.72;;;7.08;100.00
52469;BME280;38381;53.688;10.776;2023-03-21T06:24:55;101109.03;;;7.08;100.00
52469;BME280;38381;53.688;10.776;2023-03-21T06:29:55;101106.31;;;7.03;100.00
52469;BME280;38381;53.688;10.776;2023-03-21T06:34:58;101108.22;;;7.11;100.00
52469;BME280;38381;53.688;10.776;2023-03-21T06:39:59;101112.03;;;7.25;100.00
52469;BME280;38381;53.688;10.776;2023-03-21T06:44:59;101108.44;;;7.18;100.00
52469;BME280;38381;53.688;10.776;2023-03-21T06:50:00;101117.50;;;7.37;100.00
52469;BME280;38381;53.688;10.776;2023-03-21T06:55:00;101124.00;;;7.23;100.00
52469;BME280;38381;53.688;10.776;2023-03-21T07:00:01;101118.47;;;7.41;100.00
52469;BME280;38381;53.688;10.776;2023-03-21T07:05:02;101116.13;;;7.52;100.00
52469;BME280;38381;53.688;10.776;2023-03-21T07:10:03;101111.94;;;7.55;100.00
52469;BME280;38381;53.688;10.776;2023-03-21T07:15:05;101107.97;;;7.35;100.00
52469;BME280;38381;53.688;10.776;2023-03-21T07:20:06;101106.25;;;7.35;100.00
52469;BME280;38381;53.688;10.776;2023-03-21T07:25:11;101104.91;;;7.50;100.00
52469;BME280;38381;53.688;10.776;2023-03-21T07:30:12;101104.44;;;7.66;100.00
52469;BME280;38381;53.688;10.776;2023-03-21T07:35:17;101102.88;;;7.73;100.00
52469;BME280;38381;53.688;10.776;2023-03-21T07:40:17;101102.81;;;7.70;100.00
52469;BME280;38381;53.688;10.776;2023-03-21T07:45:18;101096.16;;;7.79;100.00
52469;BME280;38381;53.688;10.776;2023-03-21T07:50:24;101097.97;;;7.83;100.00
52469;BME280;38381;53.688;10.776;2023-03-21T07:55:24;101100.06;;;8.00;100.00
52469;BME280;38381;53.688;10.776;2023-03-21T08:00:25;101108.00;;;7.71;100.00
52469;BME280;38381;53.688;10.776;2023-03-21T08:05:33;101105.31;;;8.04;100.00
52469;BME280;38381;53.688;10.776;2023-03-21T08:10:34;101103.19;;;7.86;100.00
52469;BME280;38381;53.688;10.776;2023-03-21T08:15:35;101096.41;;;7.90;100.00
52469;BME280;38381;53.688;10.776;2023-03-21T08:20:38;101095.03;;;8.06;100.00
52469;BME280;38381;53.688;10.776;2023-03-21T08:25:38;101098.06;;;7.88;100.00
52469;BME280;38381;53.688;10.776;2023-03-21T08:30:39;101103.38;;;7.94;100.00
52469;BME280;38381;53.688;10.776;2023-03-21T08:35:39;101093.81;;;7.90;100.00
52469;BME280;38381;53.688;10.776;2023-03-21T08:40:40;101092.03;;;8.27;100.00
52469;BME280;38381;53.688;10.776;2023-03-21T08:45:41;101089.50;;;8.29;100.00
52469;BME280;38381;53.688;10.776;2023-03-21T08:50:42;101089.16;;;8.13;100.00
52469;BME280;38381;53.688;10.776;2023-03-21T08:55:43;101093.59;;;8.19;100.00
52469;BME280;38381;53.688;10.776;2023-03-21T09:00:44;101096.31;;;8.25;100.00
52469;BME280;38381;53.688;10.776;2023-03-21T09:05:44;101091.63;;;8.48;100.00
52469;BME280;38381;53.688;10.776;2023-03-21T09:10:45;101092.03;;;8.27;100.00
52469;BME280;38381;53.688;10.776;2023-03-21T09:15:46;101089.72;;;8.82;100.00
52469;BME280;38381;53.688;10.776;2023-03-21T09:20:47;101096.88;;;8.51;100.00
52469;BME280;38381;53.688;10.776;2023-03-21T09:25:49;101092.13;;;8.73;99.66
52469;BME280;38381;53.688;10.776;2023-03-21T09:30:50;101089.38;;;8.65;100.00
52469;BME280;38381;53.688;10.776;2023-03-21T09:35:51;101087.69;;;8.65;100.00
52469;BME280;38381;53.688;10.776;2023-03-21T09:51:43;101072.75;;;8.98;99.97
52469;BME280;38381;53.688;10.776;2023-03-21T09:56:51;101074.16;;;8.80;99.83
52469;BME280;38381;53.688;10.776;2023-03-21T10:01:54;101070.09;;;8.93;100.00
52469;BME280;38381;53.688;10.776;2023-03-21T10:07:00;101070.38;;;9.09;98.50
52469;BME280;38381;53.688;10.776;2023-03-21T10:12:15;101065.56;;;8.81;100.00
52469;BME280;38381;53.688;10.776;2023-03-21T10:17:35;101060.38;;;9.30;97.85
52469;BME280;38381;53.688;10.776;2023-03-21T10:22:41;101056.09;;;9.32;97.69
52469;BME280;38381;53.688;10.776;2023-03-21T10:27:42;101058.66;;;9.29;98.19
52469;BME280;38381;53.688;10.776;2023-03-21T10:32:43;101056.91;;;9.30;98.27
52469;BME280;38381;53.688;10.776;2023-03-21T10:37:44;101047.78;;;9.00;100.00
52469;BME280;38381;53.688;10.776;2023-03-21T10:42:44;101052.41;;;9.18;99.39
52469;BME280;38381;53.688;10.776;2023-03-21T10:47:49;101047.75;;;8.97;100.00
52469;BME280;38381;53.688;10.776;2023-03-21T10:52:54;101044.91;;;9.35;99.42
52469;BME280;38381;53.688;10.776;2023-03-21T10:58:03;101042.53;;;9.49;97.60
52469;BME280;38381;53.688;10.776;2023-03-21T11:03:37;101038.44;;;9.63;97.06
52469;BME280;38381;53.688;10.776;2023-03-21T11:08:42;101022.78;;;9.54;97.32
52469;BME280;38381;53.688;10.776;2023-03-21T11:13:44;101023.16;;;9.81;96.56
52469;BME280;38381;53.688;10.776;2023-03-21T11:18:49;101019.44;;;9.62;98.17
52469;BME280;38381;53.688;10.776;2023-03-21T11:23:50;101025.22;;;9.44;99.03
52469;BME280;38381;53.688;10.776;2023-03-21T11:28:53;101025.28;;;9.48;100.00
52469;BME280;38381;53.688;10.776;2023-03-21T11:33:55;101014.59;;;9.85;97.28
52469;BME280;38381;53.688;10.776;2023-03-21T11:39:13;101013.09;;;9.42;99.71
52469;BME280;38381;53.688;10.776;2023-03-21T11:44:40;101005.56;;;9.56;100.00
52469;BME280;38381;53.688;10.776;2023-03-21T11:49:42;101008.28;;;9.66;98.72
52469;BME280;38381;53.688;10.776;2023-03-21T12:00:25;100991.06;;;9.69;99.05
52469;BME280;38381;53.688;10.776;2023-03-21T12:05:34;100983.50;;;9.85;100.00
52469;BME280;38381;53.688;10.776;2023-03-21T12:10:43;100979.38;;;10.01;98.25
52469;BME280;38381;53.688;10.776;2023-03-21T12:42:08;100952.25;;;9.73;100.00
52469;BME280;38381;53.688;10.776;2023-03-21T12:47:16;100947.84;;;9.64;100.00
52469;BME280;38381;53.688;10.776;2023-03-21T12:52:29;100937.59;;;9.72;98.83
52469;BME280;38381;53.688;10.776;2023-03-21T12:57:38;100935.22;;;9.91;98.64
52469;BME280;38381;53.688;10.776;2023-03-21T13:02:49;100923.78;;;9.75;99.12
52469;BME280;38381;53.688;10.776;2023-03-21T13:07:55;100921.59;;;10.07;97.30
52469;BME280;38381;53.688;10.776;2023-03-21T13:13:12;100920.59;;;9.96;97.85
52469;BME280;38381;53.688;10.776;2023-03-21T13:23:35;100905.25;;;10.16;96.11
52469;BME280;38381;53.688;10.776;2023-03-21T13:28:38;100901.59;;;9.95;96.78
52469;BME280;38381;53.688;10.776;2023-03-21T13:33:40;100896.44;;;9.98;96.99
52469;BME280;38381;53.688;10.776;2023-03-21T13:38:49;100892.28;;;10.11;96.69
52469;BME280;38381;53.688;10.776;2023-03-21T13:59:09;100863.81;;;10.19;97.27
52469;BME280;38381;53.688;10.776;2023-03-21T14:04:20;100858.41;;;9.96;97.71
52469;BME280;38381;53.688;10.776;2023-03-21T14:09:46;100852.38;;;9.97;97.37
52469;BME280;38381;53.688;10.776;2023-03-21T14:14:53;100850.72;;;10.03;97.95
52469;BME280;38381;53.688;10.776;2023-03-21T14:20:07;100844.72;;;10.07;96.65
52469;BME280;38381;53.688;10.776;2023-03-21T14:25:13;100849.84;;;10.01;96.95
52469;BME280;38381;53.688;10.776;2023-03-21T14:30:31;100848.94;;;9.99;96.67
52469;BME280;38381;53.688;10.776;2023-03-21T14:35:32;100846.41;;;10.05;98.09
52469;BME280;38381;53.688;10.776;2023-03-21T14:40:33;100843.56;;;9.79;97.79
52469;BME280;38381;53.688;10.776;2023-03-21T14:45:34;100838.53;;;9.93;96.98
52469;BME280;38381;53.688;10.776;2023-03-21T14:50:44;100831.56;;;9.89;98.29
52469;BME280;38381;53.688;10.776;2023-03-21T14:55:50;100828.00;;;9.79;98.52
52469;BME280;38381;53.688;10.776;2023-03-21T15:00:57;100819.50;;;9.91;99.06
52469;BME280;38381;53.688;10.776;2023-03-21T15:06:00;100819.72;;;10.11;98.02
52469;BME280;38381;53.688;10.776;2023-03-21T15:11:06;100814.47;;;10.05;97.13
52469;BME280;38381;53.688;10.776;2023-03-21T15:16:07;100811.81;;;9.99;98.42
52469;BME280;38381;53.688;10.776;2023-03-21T15:21:24;100809.38;;;10.16;98.35
52469;BME280;38381;53.688;10.776;2023-03-21T15:26:29;100802.44;;;10.13;98.19
52469;BME280;38381;53.688;10.776;2023-03-21T15:31:35;100805.69;;;9.91;98.54
52469;BME280;38381;53.688;10.776;2023-03-21T15:36:43;100797.00;;;9.85;99.63
52469;BME280;38381;53.688;10.776;2023-03-21T15:42:04;100789.19;;;9.81;100.00
52469;BME280;38381;53.688;10.776;2023-03-21T15:47:05;100789.09;;;9.70;100.00
52469;BME280;38381;53.688;10.776;2023-03-21T15:52:13;100783.97;;;9.76;100.00
52469;BME280;38381;53.688;10.776;2023-03-21T15:57:23;100788.25;;;9.74;100.00
52469;BME280;38381;53.688;10.776;2023-03-21T16:02:28;100785.72;;;9.82;100.00
52469;BME280;38381;53.688;10.776;2023-03-21T16:07:32;100785.59;;;9.68;100.00
52469;BME280;38381;53.688;10.776;2023-03-21T16:12:33;100777.59;;;9.46;100.00
52469;BME280;38381;53.688;10.776;2023-03-21T16:17:34;100775.22;;;9.66;100.00
52469;BME280;38381;53.688;10.776;2023-03-21T16:22:40;100778.59;;;9.59;100.00
52469;BME280;38381;53.688;10.776;2023-03-21T16:27:41;100764.75;;;9.57;100.00
52469;BME280;38381;53.688;10.776;2023-03-21T16:32:41;100764.69;;;9.48;100.00
52469;BME280;38381;53.688;10.776;2023-03-21T16:37:42;100758.63;;;9.49;100.00
52469;BME280;38381;53.688;10.776;2023-03-21T16:42:43;100769.03;;;9.55;100.00
52469;BME280;38381;53.688;10.776;2023-03-21T16:47:44;100770.78;;;9.55;100.00
52469;BME280;38381;53.688;10.776;2023-03-21T16:52:46;100772.47;;;9.50;100.00
52469;BME280;38381;53.688;10.776;2023-03-21T16:57:48;100771.44;;;9.37;100.00
52469;BME280;38381;53.688;10.776;2023-03-21T17:02:52;100779.41;;;9.54;100.00
52469;BME280;38381;53.688;10.776;2023-03-21T17:07:54;100783.69;;;9.50;100.00
52469;BME280;38381;53.688;10.776;2023-03-21T17:12:54;100773.50;;;9.67;100.00
52469;BME280;38381;53.688;10.776;2023-03-21T17:17:54;100792.50;;;9.66;99.13
52469;BME280;38381;53.688;10.776;2023-03-21T17:22:55;100782.94;;;9.60;98.28
52469;BME280;38381;53.688;10.776;2023-03-21T17:27:55;100773.44;;;9.61;97.37
52469;BME280;38381;53.688;10.776;2023-03-21T17:32:56;100768.94;;;9.44;98.06
52469;BME280;38381;53.688;10.776;2023-03-21T17:37:57;100767.78;;;9.19;98.60
52469;BME280;38381;53.688;10.776;2023-03-21T17:42:58;100769.59;;;9.26;97.94
52469;BME280;38381;53.688;10.776;2023-03-21T17:48:00;100770.47;;;9.27;97.03
52469;BME280;38381;53.688;10.776;2023-03-21T17:53:00;100772.75;;;9.04;97.84
52469;BME280;38381;53.688;10.776;2023-03-21T17:58:01;100773.56;;;8.98;99.06
52469;BME280;38381;53.688;10.776;2023-03-21T18:03:03;100775.19;;;8.90;98.42
52469;BME280;38381;53.688;10.776;2023-03-21T18:08:03;100777.53;;;8.75;99.63
52469;BME280;38381;53.688;10.776;2023-03-21T18:13:04;100776.47;;;8.60;100.00
52469;BME280;38381;53.688;10.776;2023-03-21T18:18:04;100773.94;;;8.65;100.00
52469;BME280;38381;53.688;10.776;2023-03-21T18:23:05;100776.47;;;8.60;100.00
52469;BME280;38381;53.688;10.776;2023-03-21T18:28:06;100775.47;;;8.49;100.00
52469;BME280;38381;53.688;10.776;2023-03-21T18:33:06;100779.84;;;8.53;100.00
52469;BME280;38381;53.688;10.776;2023-03-21T18:38:07;100789.28;;;8.53;100.00
52469;BME280;38381;53.688;10.776;2023-03-21T18:43:07;100773.50;;;8.36;100.00
52469;BME280;38381;53.688;10.776;2023-03-21T18:48:08;100775.34;;;8.41;100.00
52469;BME280;38381;53.688;10.776;2023-03-21T18:53:12;100779.78;;;8.50;100.00
52469;BME280;38381;53.688;10.776;2023-03-21T18:58:13;100770.22;;;8.44;100.00
52469;BME280;38381;53.688;10.776;2023-03-21T19:03:15;100772.66;;;8.37;100.00
52469;BME280;38381;53.688;10.776;2023-03-21T19:08:16;100764.88;;;8.35;100.00
52469;BME280;38381;53.688;10.776;2023-03-21T19:13:17;100764.75;;;8.27;100.00
52469;BME280;38381;53.688;10.776;2023-03-21T19:18:17;100757.84;;;8.26;100.00
52469;BME280;38381;53.688;10.776;2023-03-21T19:23:18;100769.09;;;8.30;100.00
52469;BME280;38381;53.688;10.776;2023-03-21T19:28:20;100773.28;;;8.23;100.00
52469;BME280;38381;53.688;10.776;2023-03-21T19:33:21;100767.91;;;8.08;100.00
52469;BME280;38381;53.688;10.776;2023-03-21T19:38:22;100769.53;;;8.04;100.00
52469;BME280;38381;53.688;10.776;2023-03-21T19:43:23;100767.94;;;8.11;100.00
52469;BME280;38381;53.688;10.776;2023-03-21T19:48:24;100772.06;;;8.00;100.00
52469;BME280;38381;53.688;10.776;2023-03-21T19:53:24;100774.84;;;8.12;100.00
52469;BME280;38381;53.688;10.776;2023-03-21T19:58:24;100772.19;;;8.09;100.00
52469;BME280;38381;53.688;10.776;2023-03-21T20:03:25;100758.34;;;8.04;100.00
52469;BME280;38381;53.688;10.776;2023-03-21T20:08:25;100754.09;;;8.06;100.00
52469;BME280;38381;53.688;10.776;2023-03-21T20:13:26;100743.84;;;8.12;100.00
52469;BME280;38381;53.688;10.776;2023-03-21T20:18:26;100751.56;;;8.11;100.00
52469;BME280;38381;53.688;10.776;2023-03-21T20:23:27;100735.22;;;8.10;100.00
52469;BME280;38381;53.688;10.776;2023-03-21T20:28:27;100731.75;;;8.11;100.00
52469;BME280;38381;53.688;10.776;2023-03-21T20:33:29;100742.78;;;8.01;100.00
52469;BME280;38381;53.688;10.776;2023-03-21T20:38:30;100731.63;;;8.03;100.00
52469;BME280;38381;53.688;10.776;2023-03-21T20:43:31;100725.72;;;8.09;100.00
52469;BME280;38381;53.688;10.776;2023-03-21T20:48:33;100732.53;;;8.04;100.00
52469;BME280;38381;53.688;10.776;2023-03-21T20:53:34;100726.34;;;7.94;100.00
52469;BME280;38381;53.688;10.776;2023-03-21T20:58:38;100718.44;;;7.86;100.00
52469;BME280;38381;53.688;10.776;2023-03-21T21:03:39;100710.06;;;8.00;100.00
52469;BME280;38381;53.688;10.776;2023-03-21T21:08:40;100713.56;;;8.02;100.00
52469;BME280;38381;53.688;10.776;2023-03-21T21:13:41;100706.69;;;8.04;100.00
52469;BME280;38381;53.688;10.776;2023-03-21T21:18:41;100711.19;;;8.17;100.00
52469;BME280;38381;53.688;10.776;2023-03-21T21:23:42;100702.34;;;8.01;100.00
52469;BME280;38381;53.688;10.776;2023-03-21T21:28:42;100704.13;;;8.04;100.00
52469;BME280;38381;53.688;10.776;2023-03-21T21:33:46;100701.72;;;8.16;100.00
52469;BME280;38381;53.688;10.776;2023-03-21T21:38:49;100689.59;;;8.14;100.00
52469;BME280;38381;53.688;10.776;2023-03-21T21:43:49;100698.44;;;8.26;100.00
52469;BME280;38381;53.688;10.776;2023-03-21T21:48:50;100676.94;;;8.29;100.00
52469;BME280;38381;53.688;10.776;2023-03-21T21:53:56;100671.75;;;8.29;100.00
52469;BME280;38381;53.688;10.776;2023-03-21T21:58:58;100672.72;;;8.36;100.00
52469;BME280;38381;53.688;10.776;2023-03-21T22:04:01;100677.88;;;8.36;100.00
52469;BME280;38381;53.688;10.776;2023-03-21T22:09:05;100664.13;;;8.37;100.00
52469;BME280;38381;53.688;10.776;2023-03-21T22:14:06;100663.19;;;8.32;100.00
52469;BME280;38381;53.688;10.776;2023-03-21T22:19:06;100662.44;;;8.39;100.00
52469;BME280;38381;53.688;10.776;2023-03-21T22:24:06;100663.25;;;8.36;100.00
52469;BME280;38381;53.688;10.776;2023-03-21T22:29:07;100657.25;;;8.37;100.00
52469;BME280;38381;53.688;10.776;2023-03-21T22:34:09;100656.41;;;8.40;100.00
52469;BME280;38381;53.688;10.776;2023-03-21T22:39:10;100653.06;;;8.45;100.00
52469;BME280;38381;53.688;10.776;2023-03-21T22:44:11;100657.22;;;8.36;100.00
52469;BME280;38381;53.688;10.776;2023-03-21T22:49:11;100660.03;;;8.50;100.00
52469;BME280;38381;53.688;10.776;2023-03-21T22:54:12;100650.69;;;8.59;100.00
52469;BME280;38381;53.688;10.776;2023-03-21T22:59:12;100648.84;;;8.52;100.00
52469;BME280;38381;53.688;10.776;2023-03-21T23:04:13;100657.56;;;8.60;100.00
52469;BME280;38381;53.688;10.776;2023-03-21T23:09:14;100647.28;;;8.63;100.00
52469;BME280;38381;53.688;10.776;2023-03-21T23:14:16;100643.81;;;8.61;100.00
52469;BME280;38381;53.688;10.776;2023-03-21T23:19:19;100640.19;;;8.49;100.00
52469;BME280;38381;53.688;10.776;2023-03-21T23:24:21;100634.16;;;8.50;100.00
52469;BME280;38381;53.688;10.776;2023-03-21T23:29:21;100628.94;;;8.45;100.00
52469;BME280;38381;53.688;10.776;2023-03-21T23:34:22;100627.19;;;8.41;100.00
52469;BME280;38381;53.688;10.776;2023-03-21T23:39:22;100624.47;;;8.35;100.00
52469;BME280;38381;53.688;10.776;2023-03-21T23:44:23;100619.31;;;8.36;100.00
52469;BME280;38381;53.688;10.776;2023-03-21T23:49:24;100620.03;;;8.24;100.00
52469;BME280;38381;53.688;10.776;2023-03-21T23:54:25;100626.94;;;8.25;100.00
52469;BME280;38381;53.688;10.776;2023-03-21T23:59:25;100616.44;;;8.15;100.00
